sensor_id;sensor_type;location;lat;lon;timestamp;temperature;humidity
76104;HTU21D;64831;44.870;37.336;2023-02-28T00:01:37;13.60;48.70
76104;HTU21D;64831;44.870;37.336;2023-02-28T00:04:03;13.60;48.69
76104;HTU21D;64831;44.870;37.336;2023-02-28T00:06:29;13.61;48.55
76104;HTU21D;64831;44.870;37.336;2023-02-28T00:08:54;13.63;48.36
76104;HTU21D;64831;44.870;37.336;2023-02-28T00:11:20;13.64;48.23
76104;HTU21D;64831;44.870;37.336;2023-02-28T00:13:46;13.66;48.18
76104;HTU21D;64831;44.870;37.336;2023-02-28T00:16:14;13.68;48.00
76104;HTU21D;64831;44.870;37.336;2023-02-28T00:18:40;13.71;47.82
76104;HTU21D;64831;44.870;37.336;2023-02-28T00:21:06;13.74;47.70
76104;HTU21D;64831;44.870;37.336;2023-02-28T00:23:31;13.77;47.62
76104;HTU21D;64831;44.870;37.336;2023-02-28T00:25:57;13.79;47.51
76104;HTU21D;64831;44.870;37.336;2023-02-28T00:28:23;13.82;47.46
76104;HTU21D;64831;44.870;37.336;2023-02-28T00:30:50;13.88;47.21
76104;HTU21D;64831;44.870;37.336;2023-02-28T00:33:15;13.93;47.11
76104;HTU21D;64831;44.870;37.336;2023-02-28T00:35:41;13.97;47.12
76104;HTU21D;64831;44.870;37.336;2023-02-28T00:38:08;13.98;46.60
76104;HTU21D;64831;44.870;37.336;2023-02-28T00:40:34;14.00;46.67
76104;HTU21D;64831;44.870;37.336;2023-02-28T00:42:59;14.03;46.60
76104;HTU21D;64831;44.870;37.336;2023-02-28T00:45:25;14.05;46.60
76104;HTU21D;64831;44.870;37.336;2023-02-28T00:47:51;14.07;46.54
76104;HTU21D;64831;44.870;37.336;2023-02-28T00:50:17;14.10;46.48
76104;HTU21D;64831;44.870;37.336;2023-02-28T00:52:43;14.12;46.48
76104;HTU21D;64831;44.870;37.336;2023-02-28T00:55:09;14.15;46.43
76104;HTU21D;64831;44.870;37.336;2023-02-28T00:57:35;14.17;46.50
76104;HTU21D;64831;44.870;37.336;2023-02-28T01:00:03;14.19;46.52
76104;HTU21D;64831;44.870;37.336;2023-02-28T01:02:29;14.19;46.70
76104;HTU21D;64831;44.870;37.336;2023-02-28T01:04:54;14.20;46.73
76104;HTU21D;64831;44.870;37.336;2023-02-28T01:07:22;14.22;46.79
76104;HTU21D;64831;44.870;37.336;2023-02-28T01:09:48;14.26;46.86
76104;HTU21D;64831;44.870;37.336;2023-02-28T01:12:13;14.29;46.99
76104;HTU21D;64831;44.870;37.336;2023-02-28T01:14:39;14.34;47.14
76104;HTU21D;64831;44.870;37.336;2023-02-28T01:17:05;14.38;47.03
76104;HTU21D;64831;44.870;37.336;2023-02-28T01:19:31;14.41;47.02
76104;HTU21D;64831;44.870;37.336;2023-02-28T01:21:56;14.45;46.99
76104;HTU21D;64831;44.870;37.336;2023-02-28T01:24:22;14.53;46.95
76104;HTU21D;64831;44.870;37.336;2023-02-28T01:26:48;14.56;46.91
76104;HTU21D;64831;44.870;37.336;2023-02-28T01:29:14;14.64;46.87
76104;HTU21D;64831;44.870;37.336;2023-02-28T01:31:40;14.67;46.81
76104;HTU21D;64831;44.870;37.336;2023-02-28T01:34:07;14.70;46.82
76104;HTU21D;64831;44.870;37.336;2023-02-28T01:36:33;14.72;46.83
76104;HTU21D;64831;44.870;37.336;2023-02-28T01:38:58;14.73;46.83
76104;HTU21D;64831;44.870;37.336;2023-02-28T01:41:27;14.75;46.77
76104;HTU21D;64831;44.870;37.336;2023-02-28T01:43:54;14.78;46.71
76104;HTU21D;64831;44.870;37.336;2023-02-28T01:46:20;14.79;46.74
76104;HTU21D;64831;44.870;37.336;2023-02-28T01:48:48;14.80;46.73
76104;HTU21D;64831;44.870;37.336;2023-02-28T01:51:17;14.83;46.62
76104;HTU21D;64831;44.870;37.336;2023-02-28T01:53:46;14.85;46.57
76104;HTU21D;64831;44.870;37.336;2023-02-28T01:56:13;14.86;46.67
76104;HTU21D;64831;44.870;37.336;2023-02-28T01:58:48;14.86;46.60
76104;HTU21D;64831;44.870;37.336;2023-02-28T02:01:14;14.89;46.47
76104;HTU21D;64831;44.870;37.336;2023-02-28T02:03:49;14.88;46.39
76104;HTU21D;64831;44.870;37.336;2023-02-28T02:06:25;14.89;46.11
76104;HTU21D;64831;44.870;37.336;2023-02-28T02:08:51;14.88;46.15
76104;HTU21D;64831;44.870;37.336;2023-02-28T02:11:18;14.87;46.00
76104;HTU21D;64831;44.870;37.336;2023-02-28T02:13:52;14.83;46.05
76104;HTU21D;64831;44.870;37.336;2023-02-28T02:27:44;14.77;45.64
76104;HTU21D;64831;44.870;37.336;2023-02-28T02:35:47;14.87;45.24
76104;HTU21D;64831;44.870;37.336;2023-02-28T02:38:21;14.91;44.78
76104;HTU21D;64831;44.870;37.336;2023-02-28T02:43:32;14.96;45.09
76104;HTU21D;64831;44.870;37.336;2023-02-28T02:46:02;14.99;44.90
76104;HTU21D;64831;44.870;37.336;2023-02-28T02:48:31;15.00;44.73
76104;HTU21D;64831;44.870;37.336;2023-02-28T02:51:00;15.02;44.93
76104;HTU21D;64831;44.870;37.336;2023-02-28T02:53:29;15.01;44.53
76104;HTU21D;64831;44.870;37.336;2023-02-28T02:55:56;15.01;44.86
76104;HTU21D;64831;44.870;37.336;2023-02-28T02:58:25;15.00;44.78
76104;HTU21D;64831;44.870;37.336;2023-02-28T03:00:53;14.96;44.72
76104;HTU21D;64831;44.870;37.336;2023-02-28T03:03:19;14.92;44.69
76104;HTU21D;64831;44.870;37.336;2023-02-28T03:05:54;14.87;44.77
76104;HTU21D;64831;44.870;37.336;2023-02-28T03:08:21;14.86;44.94
76104;HTU21D;64831;44.870;37.336;2023-02-28T03:10:50;14.84;44.79
76104;HTU21D;64831;44.870;37.336;2023-02-28T03:18:27;14.72;45.22
76104;HTU21D;64831;44.870;37.336;2023-02-28T03:21:12;14.68;45.41
76104;HTU21D;64831;44.870;37.336;2023-02-28T03:23:56;14.58;45.82
76104;HTU21D;64831;44.870;37.336;2023-02-28T03:26:25;14.51;46.12
76104;HTU21D;64831;44.870;37.336;2023-02-28T03:29:05;14.50;45.93
76104;HTU21D;64831;44.870;37.336;2023-02-28T03:31:35;14.44;45.98
76104;HTU21D;64831;44.870;37.336;2023-02-28T03:36:35;14.32;46.08
76104;HTU21D;64831;44.870;37.336;2023-02-28T03:39:27;14.26;46.20
76104;HTU21D;64831;44.870;37.336;2023-02-28T03:41:56;14.26;46.21
76104;HTU21D;64831;44.870;37.336;2023-02-28T03:44:30;14.27;46.15
76104;HTU21D;64831;44.870;37.336;2023-02-28T03:47:02;14.26;46.15
76104;HTU21D;64831;44.870;37.336;2023-02-28T03:49:32;14.26;46.19
76104;HTU21D;64831;44.870;37.336;2023-02-28T03:51:59;14.22;46.30
76104;HTU21D;64831;44.870;37.336;2023-02-28T03:54:30;14.15;46.35
76104;HTU21D;64831;44.870;37.336;2023-02-28T03:57:02;14.10;46.47
76104;HTU21D;64831;44.870;37.336;2023-02-28T04:02:01;14.00;46.69
76104;HTU21D;64831;44.870;37.336;2023-02-28T04:04:28;13.98;46.71
76104;HTU21D;64831;44.870;37.336;2023-02-28T04:07:00;13.96;46.73
76104;HTU21D;64831;44.870;37.336;2023-02-28T04:09:27;13.95;46.83
76104;HTU21D;64831;44.870;37.336;2023-02-28T04:11:53;13.97;46.86
76104;HTU21D;64831;44.870;37.336;2023-02-28T04:14:20;13.97;46.86
76104;HTU21D;64831;44.870;37.336;2023-02-28T04:16:46;13.98;46.86
76104;HTU21D;64831;44.870;37.336;2023-02-28T04:19:13;13.97;46.86
76104;HTU21D;64831;44.870;37.336;2023-02-28T04:21:40;13.97;46.76
76104;HTU21D;64831;44.870;37.336;2023-02-28T04:24:07;13.98;46.79
76104;HTU21D;64831;44.870;37.336;2023-02-28T04:26:34;14.03;46.58
76104;HTU21D;64831;44.870;37.336;2023-02-28T04:29:00;14.09;46.26
76104;HTU21D;64831;44.870;37.336;2023-02-28T04:31:26;14.15;46.15
76104;HTU21D;64831;44.870;37.336;2023-02-28T04:33:52;14.25;46.12
76104;HTU21D;64831;44.870;37.336;2023-02-28T04:36:17;14.32;45.97
76104;HTU21D;64831;44.870;37.336;2023-02-28T04:38:44;14.37;45.88
76104;HTU21D;64831;44.870;37.336;2023-02-28T04:41:10;14.42;45.15
76104;HTU21D;64831;44.870;37.336;2023-02-28T04:43:36;14.52;45.63
76104;HTU21D;64831;44.870;37.336;2023-02-28T04:46:02;14.59;45.58
76104;HTU21D;64831;44.870;37.336;2023-02-28T04:48:29;14.66;44.63
76104;HTU21D;64831;44.870;37.336;2023-02-28T04:50:55;14.75;44.91
76104;HTU21D;64831;44.870;37.336;2023-02-28T04:53:21;14.84;44.80
76104;HTU21D;64831;44.870;37.336;2023-02-28T04:55:46;14.94;44.88
76104;HTU21D;64831;44.870;37.336;2023-02-28T04:58:13;15.01;43.41
76104;HTU21D;64831;44.870;37.336;2023-02-28T05:00:38;15.12;44.16
76104;HTU21D;64831;44.870;37.336;2023-02-28T05:03:04;15.21;43.73
76104;HTU21D;64831;44.870;37.336;2023-02-28T05:05:30;15.28;43.68
76104;HTU21D;64831;44.870;37.336;2023-02-28T05:07:56;15.29;43.46
76104;HTU21D;64831;44.870;37.336;2023-02-28T05:10:22;15.26;43.37
76104;HTU21D;64831;44.870;37.336;2023-02-28T05:12:48;15.24;43.74
76104;HTU21D;64831;44.870;37.336;2023-02-28T05:15:14;15.19;43.50
76104;HTU21D;64831;44.870;37.336;2023-02-28T05:17:40;15.15;43.51
76104;HTU21D;64831;44.870;37.336;2023-02-28T05:20:06;15.15;43.86
76104;HTU21D;64831;44.870;37.336;2023-02-28T05:22:32;15.17;43.84
76104;HTU21D;64831;44.870;37.336;2023-02-28T05:24:58;15.10;43.77
76104;HTU21D;64831;44.870;37.336;2023-02-28T05:27:23;15.02;44.10
76104;HTU21D;64831;44.870;37.336;2023-02-28T05:29:50;14.97;44.19
76104;HTU21D;64831;44.870;37.336;2023-02-28T05:32:15;15.01;44.34
76104;HTU21D;64831;44.870;37.336;2023-02-28T05:34:41;15.07;44.28
76104;HTU21D;64831;44.870;37.336;2023-02-28T05:37:11;15.10;44.17
76104;HTU21D;64831;44.870;37.336;2023-02-28T05:39:37;15.14;44.25
76104;HTU21D;64831;44.870;37.336;2023-02-28T05:42:03;15.23;44.51
76104;HTU21D;64831;44.870;37.336;2023-02-28T05:44:28;15.30;44.07
76104;HTU21D;64831;44.870;37.336;2023-02-28T05:46:54;15.31;43.93
76104;HTU21D;64831;44.870;37.336;2023-02-28T05:49:20;15.31;43.74
76104;HTU21D;64831;44.870;37.336;2023-02-28T05:51:45;15.32;43.82
76104;HTU21D;64831;44.870;37.336;2023-02-28T05:54:11;15.37;44.02
76104;HTU21D;64831;44.870;37.336;2023-02-28T05:56:37;15.34;43.88
76104;HTU21D;64831;44.870;37.336;2023-02-28T05:59:09;15.34;44.13
76104;HTU21D;64831;44.870;37.336;2023-02-28T06:01:41;15.45;43.97
76104;HTU21D;64831;44.870;37.336;2023-02-28T06:04:10;15.52;43.31
76104;HTU21D;64831;44.870;37.336;2023-02-28T06:06:36;15.56;43.90
76104;HTU21D;64831;44.870;37.336;2023-02-28T06:09:05;15.59;43.96
76104;HTU21D;64831;44.870;37.336;2023-02-28T06:11:30;15.61;43.77
76104;HTU21D;64831;44.870;37.336;2023-02-28T06:13:57;15.60;43.89
76104;HTU21D;64831;44.870;37.336;2023-02-28T06:16:25;15.58;43.71
76104;HTU21D;64831;44.870;37.336;2023-02-28T06:18:51;15.56;43.87
76104;HTU21D;64831;44.870;37.336;2023-02-28T06:21:18;15.54;44.14
76104;HTU21D;64831;44.870;37.336;2023-02-28T06:23:43;15.56;44.49
76104;HTU21D;64831;44.870;37.336;2023-02-28T06:26:09;15.60;44.54
76104;HTU21D;64831;44.870;37.336;2023-02-28T06:28:35;15.58;44.49
76104;HTU21D;64831;44.870;37.336;2023-02-28T06:31:05;15.48;44.74
76104;HTU21D;64831;44.870;37.336;2023-02-28T06:33:31;15.36;45.07
76104;HTU21D;64831;44.870;37.336;2023-02-28T06:35:57;15.23;45.38
76104;HTU21D;64831;44.870;37.336;2023-02-28T06:38:22;15.08;45.93
76104;HTU21D;64831;44.870;37.336;2023-02-28T06:40:52;14.97;46.09
76104;HTU21D;64831;44.870;37.336;2023-02-28T06:43:18;14.78;46.50
76104;HTU21D;64831;44.870;37.336;2023-02-28T06:45:44;14.73;46.66
76104;HTU21D;64831;44.870;37.336;2023-02-28T06:48:09;14.68;47.03
76104;HTU21D;64831;44.870;37.336;2023-02-28T06:50:36;14.68;47.42
76104;HTU21D;64831;44.870;37.336;2023-02-28T06:53:02;14.69;47.63
76104;HTU21D;64831;44.870;37.336;2023-02-28T06:55:28;14.69;47.50
76104;HTU21D;64831;44.870;37.336;2023-02-28T06:57:53;14.69;47.64
76104;HTU21D;64831;44.870;37.336;2023-02-28T07:00:20;14.68;48.40
76104;HTU21D;64831;44.870;37.336;2023-02-28T07:02:46;14.62;48.63
76104;HTU21D;64831;44.870;37.336;2023-02-28T07:05:12;14.56;48.95
76104;HTU21D;64831;44.870;37.336;2023-02-28T07:07:38;14.59;49.92
76104;HTU21D;64831;44.870;37.336;2023-02-28T07:10:09;14.69;49.27
76104;HTU21D;64831;44.870;37.336;2023-02-28T07:12:36;14.74;49.55
76104;HTU21D;64831;44.870;37.336;2023-02-28T07:15:01;14.77;49.11
76104;HTU21D;64831;44.870;37.336;2023-02-28T07:17:28;14.80;49.83
76104;HTU21D;64831;44.870;37.336;2023-02-28T07:19:54;14.83;49.47
76104;HTU21D;64831;44.870;37.336;2023-02-28T07:22:19;14.84;49.85
76104;HTU21D;64831;44.870;37.336;2023-02-28T07:24:45;15.06;49.85
76104;HTU21D;64831;44.870;37.336;2023-02-28T07:27:11;15.32;49.97
76104;HTU21D;64831;44.870;37.336;2023-02-28T07:29:36;15.43;49.56
76104;HTU21D;64831;44.870;37.336;2023-02-28T07:32:03;15.55;49.50
76104;HTU21D;64831;44.870;37.336;2023-02-28T07:34:29;15.60;49.85
76104;HTU21D;64831;44.870;37.336;2023-02-28T07:36:55;15.59;49.59
76104;HTU21D;64831;44.870;37.336;2023-02-28T07:39:21;15.45;50.23
76104;HTU21D;64831;44.870;37.336;2023-02-28T07:41:47;15.15;51.27
76104;HTU21D;64831;44.870;37.336;2023-02-28T07:44:12;15.08;51.81
76104;HTU21D;64831;44.870;37.336;2023-02-28T07:46:38;15.09;52.37
76104;HTU21D;64831;44.870;37.336;2023-02-28T07:49:04;15.18;52.22
76104;HTU21D;64831;44.870;37.336;2023-02-28T07:51:30;15.21;52.25
76104;HTU21D;64831;44.870;37.336;2023-02-28T07:53:57;15.04;52.97
76104;HTU21D;64831;44.870;37.336;2023-02-28T07:56:23;14.87;53.82
76104;HTU21D;64831;44.870;37.336;2023-02-28T07:58:49;14.83;55.53
76104;HTU21D;64831;44.870;37.336;2023-02-28T08:01:14;14.63;56.77
76104;HTU21D;64831;44.870;37.336;2023-02-28T08:03:40;14.56;57.12
76104;HTU21D;64831;44.870;37.336;2023-02-28T08:06:07;14.63;57.26
76104;HTU21D;64831;44.870;37.336;2023-02-28T08:08:34;14.64;57.28
76104;HTU21D;64831;44.870;37.336;2023-02-28T08:11:01;14.60;57.15
76104;HTU21D;64831;44.870;37.336;2023-02-28T08:13:27;14.56;58.41
76104;HTU21D;64831;44.870;37.336;2023-02-28T08:15:54;14.65;57.76
76104;HTU21D;64831;44.870;37.336;2023-02-28T08:18:20;14.49;57.94
76104;HTU21D;64831;44.870;37.336;2023-02-28T08:20:46;14.47;58.42
76104;HTU21D;64831;44.870;37.336;2023-02-28T08:23:12;14.48;58.54
76104;HTU21D;64831;44.870;37.336;2023-02-28T08:25:37;14.48;58.58
76104;HTU21D;64831;44.870;37.336;2023-02-28T08:28:03;14.43;58.14
76104;HTU21D;64831;44.870;37.336;2023-02-28T08:30:29;14.38;58.25
76104;HTU21D;64831;44.870;37.336;2023-02-28T08:32:54;14.33;58.66
76104;HTU21D;64831;44.870;37.336;2023-02-28T08:35:20;14.30;58.85
76104;HTU21D;64831;44.870;37.336;2023-02-28T08:37:49;14.33;58.67
76104;HTU21D;64831;44.870;37.336;2023-02-28T08:40:15;14.23;58.76
76104;HTU21D;64831;44.870;37.336;2023-02-28T08:42:46;14.12;59.12
76104;HTU21D;64831;44.870;37.336;2023-02-28T08:45:12;14.01;59.31
76104;HTU21D;64831;44.870;37.336;2023-02-28T08:47:38;13.91;59.54
76104;HTU21D;64831;44.870;37.336;2023-02-28T08:50:05;13.88;60.18
76104;HTU21D;64831;44.870;37.336;2023-02-28T08:52:31;13.86;60.17
76104;HTU21D;64831;44.870;37.336;2023-02-28T08:54:56;13.92;60.41
76104;HTU21D;64831;44.870;37.336;2023-02-28T08:57:22;13.98;60.19
76104;HTU21D;64831;44.870;37.336;2023-02-28T08:59:48;13.95;60.06
76104;HTU21D;64831;44.870;37.336;2023-02-28T09:02:14;13.90;59.95
76104;HTU21D;64831;44.870;37.336;2023-02-28T09:04:40;13.93;60.44
76104;HTU21D;64831;44.870;37.336;2023-02-28T09:07:05;14.04;60.63
76104;HTU21D;64831;44.870;37.336;2023-02-28T09:09:31;14.22;60.07
76104;HTU21D;64831;44.870;37.336;2023-02-28T09:11:57;14.33;59.57
76104;HTU21D;64831;44.870;37.336;2023-02-28T09:14:23;14.44;59.35
76104;HTU21D;64831;44.870;37.336;2023-02-28T09:16:48;14.47;58.83
76104;HTU21D;64831;44.870;37.336;2023-02-28T09:19:14;14.38;58.99
76104;HTU21D;64831;44.870;37.336;2023-02-28T09:21:40;14.47;59.02
76104;HTU21D;64831;44.870;37.336;2023-02-28T09:24:06;14.65;58.74
76104;HTU21D;64831;44.870;37.336;2023-02-28T09:26:32;14.94;59.00
76104;HTU21D;64831;44.870;37.336;2023-02-28T12:44:09;11.63;61.77
76104;HTU21D;64831;44.870;37.336;2023-02-28T12:46:38;11.54;62.12
76104;HTU21D;64831;44.870;37.336;2023-02-28T12:49:13;11.47;62.47
76104;HTU21D;64831;44.870;37.336;2023-02-28T12:51:41;11.39;62.33
76104;HTU21D;64831;44.870;37.336;2023-02-28T13:09:22;11.01;62.55
76104;HTU21D;64831;44.870;37.336;2023-02-28T13:11:49;10.88;62.92
76104;HTU21D;64831;44.870;37.336;2023-02-28T13:16:49;10.68;63.63
76104;HTU21D;64831;44.870;37.336;2023-02-28T13:19:16;10.65;63.35
76104;HTU21D;64831;44.870;37.336;2023-02-28T13:21:43;10.60;63.64
76104;HTU21D;64831;44.870;37.336;2023-02-28T13:24:10;10.54;63.66
76104;HTU21D;64831;44.870;37.336;2023-02-28T13:29:04;10.55;63.55
76104;HTU21D;64831;44.870;37.336;2023-02-28T13:39:55;10.20;64.63
76104;HTU21D;64831;44.870;37.336;2023-02-28T13:50:20;10.01;65.56
76104;HTU21D;64831;44.870;37.336;2023-02-28T13:57:54;9.88;65.62
76104;HTU21D;64831;44.870;37.336;2023-02-28T14:05:21;9.71;66.30
76104;HTU21D;64831;44.870;37.336;2023-02-28T14:07:53;9.66;66.10
76104;HTU21D;64831;44.870;37.336;2023-02-28T14:10:24;9.62;66.69
76104;HTU21D;64831;44.870;37.336;2023-02-28T14:12:54;9.61;65.96
76104;HTU21D;64831;44.870;37.336;2023-02-28T14:17:52;9.47;66.78
76104;HTU21D;64831;44.870;37.336;2023-02-28T14:20:18;9.41;66.30
76104;HTU21D;64831;44.870;37.336;2023-02-28T14:22:54;9.38;66.27
76104;HTU21D;64831;44.870;37.336;2023-02-28T14:30:49;9.19;66.77
76104;HTU21D;64831;44.870;37.336;2023-02-28T14:38:20;9.09;66.75
76104;HTU21D;64831;44.870;37.336;2023-02-28T14:40:47;9.05;66.84
76104;HTU21D;64831;44.870;37.336;2023-02-28T14:43:19;9.02;66.61
76104;HTU21D;64831;44.870;37.336;2023-02-28T14:45:48;8.97;66.33
76104;HTU21D;64831;44.870;37.336;2023-02-28T14:48:14;8.92;66.44
76104;HTU21D;64831;44.870;37.336;2023-02-28T14:50:41;8.88;66.53
76104;HTU21D;64831;44.870;37.336;2023-02-28T14:53:15;8.80;67.17
76104;HTU21D;64831;44.870;37.336;2023-02-28T14:55:44;8.78;66.47
76104;HTU21D;64831;44.870;37.336;2023-02-28T14:58:21;8.67;67.33
76104;HTU21D;64831;44.870;37.336;2023-02-28T15:00:48;8.62;67.36
76104;HTU21D;64831;44.870;37.336;2023-02-28T15:03:18;8.49;67.84
76104;HTU21D;64831;44.870;37.336;2023-02-28T15:05:51;8.41;68.52
76104;HTU21D;64831;44.870;37.336;2023-02-28T15:08:17;8.36;68.30
76104;HTU21D;64831;44.870;37.336;2023-02-28T15:10:50;8.32;68.78
76104;HTU21D;64831;44.870;37.336;2023-02-28T15:13:17;8.30;68.24
76104;HTU21D;64831;44.870;37.336;2023-02-28T15:15:45;8.20;69.17
76104;HTU21D;64831;44.870;37.336;2023-02-28T15:18:15;8.21;68.13
76104;HTU21D;64831;44.870;37.336;2023-02-28T15:20:42;8.17;68.91
76104;HTU21D;64831;44.870;37.336;2023-02-28T15:23:09;8.12;69.04
76104;HTU21D;64831;44.870;37.336;2023-02-28T15:25:36;8.06;68.84
76104;HTU21D;64831;44.870;37.336;2023-02-28T15:28:02;7.96;69.61
76104;HTU21D;64831;44.870;37.336;2023-02-28T15:30:29;7.90;70.13
76104;HTU21D;64831;44.870;37.336;2023-02-28T15:33:33;7.89;69.94
76104;HTU21D;64831;44.870;37.336;2023-02-28T15:35:47;7.85;69.58
76104;HTU21D;64831;44.870;37.336;2023-02-28T15:38:15;7.79;69.52
76104;HTU21D;64831;44.870;37.336;2023-02-28T15:40:42;7.71;69.71
76104;HTU21D;64831;44.870;37.336;2023-02-28T15:43:16;7.68;69.78
76104;HTU21D;64831;44.870;37.336;2023-02-28T15:45:46;7.65;69.82
76104;HTU21D;64831;44.870;37.336;2023-02-28T15:48:22;7.54;70.66
76104;HTU21D;64831;44.870;37.336;2023-02-28T15:50:50;7.45;71.00
76104;HTU21D;64831;44.870;37.336;2023-02-28T15:53:17;7.43;70.64
76104;HTU21D;64831;44.870;37.336;2023-02-28T15:55:44;7.39;71.08
76104;HTU21D;64831;44.870;37.336;2023-02-28T15:58:10;7.38;70.55
76104;HTU21D;64831;44.870;37.336;2023-02-28T16:00:38;7.28;71.44
76104;HTU21D;64831;44.870;37.336;2023-02-28T16:06:07;7.24;71.16
76104;HTU21D;64831;44.870;37.336;2023-02-28T16:08:33;7.15;71.78
76104;HTU21D;64831;44.870;37.336;2023-02-28T16:10:58;7.05;72.16
76104;HTU21D;64831;44.870;37.336;2023-02-28T16:13:24;6.99;72.75
76104;HTU21D;64831;44.870;37.336;2023-02-28T16:15:50;6.97;72.42
76104;HTU21D;64831;44.870;37.336;2023-02-28T16:18:16;6.95;72.19
76104;HTU21D;64831;44.870;37.336;2023-02-28T16:20:42;6.94;71.84
76104;HTU21D;64831;44.870;37.336;2023-02-28T16:23:09;6.86;72.48
76104;HTU21D;64831;44.870;37.336;2023-02-28T16:25:39;6.82;72.44
76104;HTU21D;64831;44.870;37.336;2023-02-28T16:30:40;6.73;72.33
76104;HTU21D;64831;44.870;37.336;2023-02-28T16:33:07;6.68;72.76
76104;HTU21D;64831;44.870;37.336;2023-02-28T16:35:33;6.63;72.89
76104;HTU21D;64831;44.870;37.336;2023-02-28T16:37:59;6.60;72.74
76104;HTU21D;64831;44.870;37.336;2023-02-28T16:40:25;6.55;72.59
76104;HTU21D;64831;44.870;37.336;2023-02-28T16:42:52;6.46;73.03
76104;HTU21D;64831;44.870;37.336;2023-02-28T16:45:23;6.42;73.03
76104;HTU21D;64831;44.870;37.336;2023-02-28T16:47:49;6.40;73.41
76104;HTU21D;64831;44.870;37.336;2023-02-28T16:50:17;6.38;73.63
76104;HTU21D;64831;44.870;37.336;2023-02-28T16:52:43;6.35;73.81
76104;HTU21D;64831;44.870;37.336;2023-02-28T16:55:09;6.35;73.69
76104;HTU21D;64831;44.870;37.336;2023-02-28T16:57:36;6.39;72.96
76104;HTU21D;64831;44.870;37.336;2023-02-28T17:00:03;6.37;73.32
76104;HTU21D;64831;44.870;37.336;2023-02-28T17:02:29;6.36;73.22
76104;HTU21D;64831;44.870;37.336;2023-02-28T17:04:54;6.34;73.67
76104;HTU21D;64831;44.870;37.336;2023-02-28T17:07:20;6.38;73.45
76104;HTU21D;64831;44.870;37.336;2023-02-28T17:09:47;6.37;73.79
76104;HTU21D;64831;44.870;37.336;2023-02-28T17:12:13;6.42;73.23
76104;HTU21D;64831;44.870;37.336;2023-02-28T17:14:39;6.41;73.72
76104;HTU21D;64831;44.870;37.336;2023-02-28T17:17:07;6.45;73.56
76104;HTU21D;64831;44.870;37.336;2023-02-28T17:19:33;6.43;73.65
76104;HTU21D;64831;44.870;37.336;2023-02-28T17:22:01;6.37;74.01
76104;HTU21D;64831;44.870;37.336;2023-02-28T17:24:28;6.31;74.27
76104;HTU21D;64831;44.870;37.336;2023-02-28T17:26:54;6.26;74.64
76104;HTU21D;64831;44.870;37.336;2023-02-28T17:29:20;6.17;74.92
76104;HTU21D;64831;44.870;37.336;2023-02-28T17:31:47;6.14;74.38
76104;HTU21D;64831;44.870;37.336;2023-02-28T17:34:13;6.13;74.38
76104;HTU21D;64831;44.870;37.336;2023-02-28T17:37:02;6.12;74.60
76104;HTU21D;64831;44.870;37.336;2023-02-28T17:39:29;6.06;75.02
76104;HTU21D;64831;44.870;37.336;2023-02-28T17:41:57;6.05;74.87
76104;HTU21D;64831;44.870;37.336;2023-02-28T17:44:24;6.01;75.17
76104;HTU21D;64831;44.870;37.336;2023-02-28T17:46:50;5.95;75.36
76104;HTU21D;64831;44.870;37.336;2023-02-28T17:49:17;5.90;75.57
76104;HTU21D;64831;44.870;37.336;2023-02-28T17:51:43;5.87;75.73
76104;HTU21D;64831;44.870;37.336;2023-02-28T17:54:09;5.92;75.25
76104;HTU21D;64831;44.870;37.336;2023-02-28T17:56:35;5.92;75.01
76104;HTU21D;64831;44.870;37.336;2023-02-28T17:59:03;5.91;75.22
76104;HTU21D;64831;44.870;37.336;2023-02-28T18:01:29;5.93;74.80
76104;HTU21D;64831;44.870;37.336;2023-02-28T18:03:55;5.94;75.05
76104;HTU21D;64831;44.870;37.336;2023-02-28T18:06:26;5.91;75.26
76104;HTU21D;64831;44.870;37.336;2023-02-28T18:08:53;5.91;75.14
76104;HTU21D;64831;44.870;37.336;2023-02-28T18:11:22;5.92;74.70
76104;HTU21D;64831;44.870;37.336;2023-02-28T18:13:52;5.93;74.99
76104;HTU21D;64831;44.870;37.336;2023-02-28T18:16:18;5.92;75.18
76104;HTU21D;64831;44.870;37.336;2023-02-28T18:18:44;5.91;75.25
76104;HTU21D;64831;44.870;37.336;2023-02-28T18:21:11;5.85;75.53
76104;HTU21D;64831;44.870;37.336;2023-02-28T18:23:37;5.86;75.16
76104;HTU21D;64831;44.870;37.336;2023-02-28T18:26:09;5.91;74.18
76104;HTU21D;64831;44.870;37.336;2023-02-28T18:28:35;5.87;73.97
76104;HTU21D;64831;44.870;37.336;2023-02-28T18:31:05;5.85;73.91
76104;HTU21D;64831;44.870;37.336;2023-02-28T18:33:31;5.83;74.18
76104;HTU21D;64831;44.870;37.336;2023-02-28T18:35:56;5.82;74.31
76104;HTU21D;64831;44.870;37.336;2023-02-28T18:38:22;5.81;74.05
76104;HTU21D;64831;44.870;37.336;2023-02-28T18:40:55;5.76;74.58
76104;HTU21D;64831;44.870;37.336;2023-02-28T18:43:20;5.78;74.32
76104;HTU21D;64831;44.870;37.336;2023-02-28T18:45:46;5.76;74.39
76104;HTU21D;64831;44.870;37.336;2023-02-28T18:48:12;5.76;74.33
76104;HTU21D;64831;44.870;37.336;2023-02-28T18:50:39;5.71;74.73
76104;HTU21D;64831;44.870;37.336;2023-02-28T18:53:06;5.71;74.74
76104;HTU21D;64831;44.870;37.336;2023-02-28T18:55:32;5.68;74.86
76104;HTU21D;64831;44.870;37.336;2023-02-28T18:57:58;5.67;74.83
76104;HTU21D;64831;44.870;37.336;2023-02-28T19:00:24;5.65;74.95
76104;HTU21D;64831;44.870;37.336;2023-02-28T19:02:50;5.63;74.49
76104;HTU21D;64831;44.870;37.336;2023-02-28T19:05:17;5.60;74.60
76104;HTU21D;64831;44.870;37.336;2023-02-28T19:07:43;5.61;74.64
76104;HTU21D;64831;44.870;37.336;2023-02-28T19:10:09;5.60;74.67
76104;HTU21D;64831;44.870;37.336;2023-02-28T19:12:35;5.56;74.89
76104;HTU21D;64831;44.870;37.336;2023-02-28T19:15:02;5.57;74.89
76104;HTU21D;64831;44.870;37.336;2023-02-28T19:17:27;5.56;74.92
76104;HTU21D;64831;44.870;37.336;2023-02-28T19:19:53;5.54;75.02
76104;HTU21D;64831;44.870;37.336;2023-02-28T19:22:19;5.54;74.60
76104;HTU21D;64831;44.870;37.336;2023-02-28T19:24:45;5.55;74.47
76104;HTU21D;64831;44.870;37.336;2023-02-28T19:27:10;5.56;73.99
76104;HTU21D;64831;44.870;37.336;2023-02-28T19:29:36;5.55;74.56
76104;HTU21D;64831;44.870;37.336;2023-02-28T19:32:02;5.56;74.46
76104;HTU21D;64831;44.870;37.336;2023-02-28T19:34:28;5.59;74.53
76104;HTU21D;64831;44.870;37.336;2023-02-28T19:36:54;5.62;74.19
76104;HTU21D;64831;44.870;37.336;2023-02-28T19:39:21;5.64;74.18
76104;HTU21D;64831;44.870;37.336;2023-02-28T19:41:46;5.65;74.06
76104;HTU21D;64831;44.870;37.336;2023-02-28T19:44:12;5.62;73.90
76104;HTU21D;64831;44.870;37.336;2023-02-28T19:46:38;5.56;73.88
76104;HTU21D;64831;44.870;37.336;2023-02-28T19:49:03;5.52;74.02
76104;HTU21D;64831;44.870;37.336;2023-02-28T19:51:29;5.48;74.34
76104;HTU21D;64831;44.870;37.336;2023-02-28T19:53:55;5.46;74.50
76104;HTU21D;64831;44.870;37.336;2023-02-28T19:56:20;5.45;74.87
76104;HTU21D;64831;44.870;37.336;2023-02-28T19:58:46;5.42;75.07